createdAt,value
2023-05-08T00:00:15.435Z,87.80
2023-05-08T00:02:18.935Z,88.00
2023-05-08T00:04:22.247Z,89.50
2023-05-08T00:06:27.098Z,87.20
2023-05-08T00:08:30.310Z,86.70
2023-05-08T00:10:33.670Z,87.90
2023-05-08T00:12:37.151Z,88.20
2023-05-08T00:14:42.052Z,87.40
2023-05-08T00:16:45.741Z,87.80
2023-05-08T00:18:50.036Z,87.90
2023-05-08T00:20:53.289Z,87.30
2023-05-08T00:22:58.001Z,87.80
2023-05-08T00:25:01.208Z,89.10
2023-05-08T00:27:04.851Z,90.00
2023-05-08T00:29:08.115Z,89.50
2023-05-08T00:31:14.030Z,89.60
2023-05-08T00:33:17.305Z,87.90
2023-05-08T00:35:21.245Z,88.70
2023-05-08T00:37:24.515Z,87.90
2023-05-08T00:39:27.860Z,87.80
2023-05-08T00:41:33.205Z,86.70
2023-05-08T00:43:38.856Z,86.70
2023-05-08T00:45:42.208Z,86.70
2023-05-08T00:47:46.984Z,88.20
2023-05-08T00:49:50.779Z,88.50
2023-05-08T00:51:56.965Z,88.80
2023-05-08T00:54:01.088Z,88.50
2023-05-08T00:56:04.779Z,88.80
2023-05-08T00:58:09.681Z,89.70
2023-05-08T01:00:14.731Z,89.00
2023-05-08T01:02:20.377Z,88.90
2023-05-08T01:04:28.013Z,88.50
2023-05-08T01:06:31.806Z,88.90
2023-05-08T01:08:35.187Z,89.40
2023-05-08T01:10:47.157Z,89.40
2023-05-08T01:13:03.414Z,88.90
2023-05-08T01:15:12.520Z,88.00
2023-05-08T01:17:24.319Z,87.70
2023-05-08T01:19:58.530Z,87.70
2023-05-08T01:22:08.723Z,87.80
2023-05-08T01:24:38.055Z,87.10
2023-05-08T01:27:02.399Z,87.20
2023-05-08T01:29:41.789Z,87.20
2023-05-08T01:32:05.340Z,87.80
2023-05-08T01:34:13.346Z,86.70
2023-05-08T01:36:24.880Z,87.70
2023-05-08T01:38:34.319Z,86.80
2023-05-08T01:40:46.207Z,88.40
2023-05-08T01:42:52.164Z,88.70
2023-05-08T01:45:00.568Z,88.50
2023-05-08T01:47:08.953Z,89.30
2023-05-08T01:49:19.410Z,89.20
2023-05-08T01:51:26.646Z,89.50
2023-05-08T01:53:35.035Z,89.20
2023-05-08T01:55:40.959Z,89.20
2023-05-08T01:57:49.148Z,88.90
2023-05-08T01:59:53.900Z,87.70
2023-05-08T02:01:59.973Z,93.00
2023-05-08T02:04:06.849Z,88.50
2023-05-08T02:06:13.537Z,93.20
2023-05-08T02:12:29.108Z,99.90
2023-05-08T02:14:34.029Z,99.90
2023-05-08T02:16:39.813Z,99.90
2023-05-08T02:18:46.194Z,88.50
2023-05-08T02:20:54.999Z,88.00
2023-05-08T02:22:59.134Z,88.20
2023-05-08T02:25:02.919Z,88.20
2023-05-08T02:27:08.166Z,88.50
2023-05-08T02:29:12.094Z,88.00
2023-05-08T02:31:15.956Z,88.40
2023-05-08T02:33:24.135Z,88.90
2023-05-08T02:35:30.284Z,90.00
2023-05-08T02:37:36.699Z,89.80
2023-05-08T02:39:42.952Z,89.80
2023-05-08T02:43:52.004Z,99.90
2023-05-08T02:46:05.906Z,99.90
2023-05-08T02:48:14.140Z,99.90
2023-05-08T02:50:22.589Z,99.90
2023-05-08T02:52:32.966Z,99.90
2023-05-08T02:54:43.516Z,99.90
2023-05-08T02:56:57.042Z,99.90
2023-05-08T02:59:08.004Z,93.90
2023-05-08T03:01:20.334Z,96.80
2023-05-08T03:03:27.189Z,89.80
2023-05-08T03:05:33.789Z,89.10
2023-05-08T03:07:40.021Z,89.80
2023-05-08T03:09:48.777Z,89.00
2023-05-08T03:12:00.683Z,90.20
2023-05-08T03:14:05.546Z,89.90
2023-05-08T03:16:16.259Z,89.10
2023-05-08T03:18:26.359Z,89.70
2023-05-08T03:20:34.932Z,88.10
2023-05-08T03:22:40.681Z,87.30
2023-05-08T03:24:47.861Z,86.90
2023-05-08T03:26:51.308Z,86.70
2023-05-08T03:28:55.607Z,87.80
2023-05-08T03:31:00.305Z,86.50
2023-05-08T03:33:05.746Z,86.60
2023-05-08T03:35:11.106Z,87.10
2023-05-08T03:37:14.540Z,87.30
2023-05-08T03:39:17.868Z,85.90
2023-05-08T03:41:24.167Z,85.00
2023-05-08T03:43:28.500Z,84.80
2023-05-08T03:45:35.976Z,85.10
2023-05-08T03:47:41.293Z,85.30
2023-05-08T03:49:47.442Z,86.00
2023-05-08T03:51:51.350Z,85.20
2023-05-08T03:53:54.792Z,85.80
2023-05-08T03:56:02.352Z,85.20
2023-05-08T03:58:14.864Z,84.70
2023-05-08T04:00:33.209Z,84.90
2023-05-08T04:02:42.679Z,84.10
2023-05-08T04:04:48.798Z,85.80
2023-05-08T04:07:04.070Z,86.80
2023-05-08T04:09:09.824Z,87.10
2023-05-08T04:11:21.303Z,86.20
2023-05-08T04:13:28.982Z,85.00
2023-05-08T04:15:35.406Z,84.50
2023-05-08T04:17:43.832Z,86.80
2023-05-08T04:19:50.611Z,85.90
2023-05-08T04:21:56.603Z,87.20
2023-05-08T04:24:02.263Z,86.90
2023-05-08T04:26:06.228Z,87.10
2023-05-08T04:28:10.322Z,86.90
2023-05-08T04:30:15.824Z,88.20
2023-05-08T04:32:19.904Z,87.70
2023-05-08T04:34:24.129Z,86.60
2023-05-08T04:36:29.623Z,87.00
2023-05-08T04:38:33.017Z,86.70
2023-05-08T04:40:36.329Z,86.00
2023-05-08T04:42:42.952Z,85.30
2023-05-08T04:44:47.294Z,84.80
2023-05-08T04:46:52.013Z,85.90
2023-05-08T04:48:55.310Z,86.00
2023-05-08T04:50:58.644Z,85.70
2023-05-08T04:53:01.908Z,84.10
2023-05-08T04:55:05.793Z,84.00
2023-05-08T04:57:11.457Z,82.80
2023-05-08T04:59:16.104Z,82.70
2023-05-08T05:01:19.724Z,81.10
2023-05-08T05:03:24.348Z,81.90
2023-05-08T05:05:27.655Z,82.50
2023-05-08T05:07:33.944Z,83.80
2023-05-08T05:09:39.215Z,83.20
2023-05-08T05:11:42.481Z,83.50
2023-05-08T05:13:45.727Z,84.80
2023-05-08T05:15:51.446Z,84.30
2023-05-08T05:17:54.873Z,84.40
2023-05-08T05:19:59.810Z,84.50
2023-05-08T05:22:03.129Z,85.40
2023-05-08T05:24:08.028Z,83.90
2023-05-08T05:26:11.317Z,83.60
2023-05-08T05:28:14.545Z,83.60
2023-05-08T05:30:18.357Z,84.50
2023-05-08T05:32:21.866Z,84.50
2023-05-08T05:34:25.128Z,84.60
2023-05-08T05:36:29.806Z,83.20
2023-05-08T05:38:33.030Z,82.30
2023-05-08T05:40:36.278Z,84.60
2023-05-08T05:42:39.482Z,85.10
2023-05-08T05:44:42.751Z,85.50
2023-05-08T05:46:46.183Z,86.00
2023-05-08T05:48:49.477Z,86.10
2023-05-08T05:50:52.621Z,85.90
2023-05-08T05:52:57.308Z,86.30
2023-05-08T05:55:00.442Z,85.60
2023-05-08T05:57:03.646Z,85.40
2023-05-08T05:59:06.905Z,85.10
2023-05-08T06:01:10.198Z,83.00
2023-05-08T06:03:14.081Z,82.10
2023-05-08T06:05:19.178Z,84.20
2023-05-08T06:07:22.511Z,83.90
2023-05-08T06:09:27.175Z,83.00
2023-05-08T06:11:33.523Z,83.30
2023-05-08T06:13:36.941Z,83.50
2023-05-08T06:15:40.252Z,83.40
2023-05-08T06:17:43.520Z,91.70
2023-05-08T06:19:50.376Z,89.30
2023-05-08T06:21:53.694Z,89.90
2023-05-08T06:23:57.006Z,89.90
2023-05-08T06:26:01.911Z,90.60
2023-05-08T06:28:06.728Z,90.90
2023-05-08T06:30:10.915Z,87.40
2023-05-08T06:32:14.140Z,86.70
2023-05-08T06:34:17.397Z,84.60
2023-05-08T06:36:20.683Z,83.90
2023-05-08T06:38:23.944Z,85.30
2023-05-08T06:40:27.327Z,84.50
2023-05-08T06:42:32.077Z,84.00
2023-05-08T06:44:35.487Z,83.90
2023-05-08T06:46:38.959Z,83.90
2023-05-08T06:48:42.353Z,82.90
2023-05-08T06:50:46.676Z,83.20
2023-05-08T06:52:50.118Z,82.10
2023-05-08T06:54:53.364Z,83.00
2023-05-08T06:56:56.658Z,83.60
2023-05-08T06:59:08.267Z,81.70
2023-05-08T07:01:14.990Z,81.30
2023-05-08T07:03:18.397Z,79.90
2023-05-08T07:05:22.099Z,81.00
2023-05-08T07:07:25.378Z,81.80
2023-05-08T07:09:29.013Z,80.30
2023-05-08T07:11:32.680Z,80.60
2023-05-08T07:13:35.978Z,79.00
2023-05-08T07:15:40.740Z,80.70
2023-05-08T07:17:43.989Z,78.70
2023-05-08T07:19:52.231Z,79.20
2023-05-08T07:21:55.437Z,81.00
2023-05-08T07:24:01.020Z,80.50
2023-05-08T07:26:04.444Z,79.90
2023-05-08T07:28:08.157Z,80.50
2023-05-08T07:30:12.069Z,79.80
2023-05-08T07:32:16.745Z,80.20
2023-05-08T07:34:20.395Z,78.30
2023-05-08T07:36:23.941Z,77.30
2023-05-08T07:38:27.789Z,76.50
2023-05-08T07:40:31.103Z,76.90
2023-05-08T07:42:40.536Z,76.60
2023-05-08T07:44:51.030Z,76.20
2023-05-08T07:46:58.275Z,78.50
2023-05-08T07:49:02.932Z,77.60
2023-05-08T07:51:06.707Z,77.90
2023-05-08T07:53:10.177Z,77.10
2023-05-08T07:55:13.907Z,77.30
2023-05-08T07:57:17.356Z,76.30
2023-05-08T07:59:20.709Z,77.00
2023-05-08T08:01:24.007Z,77.00
2023-05-08T08:03:27.379Z,77.80
2023-05-08T08:05:32.263Z,77.80
2023-05-08T08:07:35.531Z,77.50
2023-05-08T08:09:38.745Z,76.90
2023-05-08T08:11:42.159Z,79.30
2023-05-08T08:13:45.477Z,80.30
2023-05-08T08:15:48.722Z,79.20
2023-05-08T08:17:52.159Z,78.90
2023-05-08T08:19:55.453Z,78.40
2023-05-08T08:22:00.314Z,77.50
2023-05-08T08:24:03.666Z,76.90
2023-05-08T08:26:07.235Z,77.20
2023-05-08T08:28:10.472Z,77.70
2023-05-08T08:30:18.079Z,78.40
2023-05-08T08:32:24.505Z,78.00
2023-05-08T08:34:27.851Z,79.00
2023-05-08T08:36:31.126Z,78.60
2023-05-08T08:38:35.739Z,79.40
2023-05-08T08:40:41.974Z,78.90
2023-05-08T08:42:45.265Z,78.10
2023-05-08T08:44:48.494Z,78.60
2023-05-08T08:46:53.305Z,77.30
2023-05-08T08:48:57.604Z,77.70
2023-05-08T08:51:04.976Z,78.40
2023-05-08T08:53:12.870Z,78.80
2023-05-08T08:55:19.688Z,78.20
2023-05-08T08:57:24.361Z,79.00
2023-05-08T08:59:29.686Z,79.80
2023-05-08T09:01:37.286Z,79.00
2023-05-08T09:03:40.774Z,79.40
2023-05-08T09:05:45.388Z,78.40
2023-05-08T09:07:49.183Z,79.20
2023-05-08T09:09:55.404Z,77.90
2023-05-08T09:12:00.029Z,78.40
2023-05-08T09:14:03.590Z,79.10
2023-05-08T09:16:07.653Z,81.30
2023-05-08T09:18:13.950Z,81.80
2023-05-08T09:20:17.790Z,81.00
2023-05-08T09:22:23.822Z,79.60
2023-05-08T09:24:30.174Z,78.20
2023-05-08T09:26:36.112Z,78.00
2023-05-08T09:28:40.952Z,77.70
2023-05-08T09:30:51.179Z,75.60
2023-05-08T09:33:03.087Z,75.20
2023-05-08T09:35:08.103Z,77.00
2023-05-08T09:37:14.402Z,78.40
2023-05-08T09:39:23.792Z,78.80
2023-05-08T09:41:27.091Z,78.70
2023-05-08T09:43:30.533Z,79.20
2023-05-08T09:45:35.618Z,77.30
2023-05-08T09:47:40.287Z,77.70
2023-05-08T09:49:58.332Z,76.20
2023-05-08T09:52:01.814Z,76.70
2023-05-08T09:54:18.282Z,75.90
2023-05-08T09:56:32.239Z,77.40
2023-05-08T09:58:39.834Z,76.50
2023-05-08T10:00:44.541Z,76.50
2023-05-08T10:02:56.538Z,76.30
2023-05-08T10:05:00.205Z,77.80
2023-05-08T10:07:04.001Z,76.50
2023-05-08T10:09:14.190Z,76.90
2023-05-08T10:11:18.172Z,75.40
2023-05-08T10:13:21.657Z,75.60
2023-05-08T10:15:27.066Z,74.10
2023-05-08T10:17:39.424Z,74.70
2023-05-08T10:19:49.866Z,74.30
2023-05-08T10:21:54.495Z,76.50
2023-05-08T10:24:02.877Z,76.40
2023-05-08T10:26:12.804Z,77.20
2023-05-08T10:28:23.788Z,77.80
2023-05-08T10:30:28.470Z,78.30
2023-05-08T10:32:40.888Z,78.10
2023-05-08T10:34:47.897Z,77.80
2023-05-08T10:36:54.202Z,76.80
2023-05-08T10:38:59.579Z,76.50
2023-05-08T10:41:03.535Z,76.20
2023-05-08T10:43:08.538Z,75.50
2023-05-08T10:45:12.958Z,77.50
2023-05-08T10:47:22.414Z,78.00
2023-05-08T10:49:41.251Z,75.80
2023-05-08T10:51:54.824Z,74.40
2023-05-08T10:54:06.107Z,73.60
2023-05-08T10:56:09.875Z,74.50
2023-05-08T10:58:15.234Z,77.30
2023-05-08T11:00:19.516Z,77.10
2023-05-08T11:02:30.201Z,77.20
2023-05-08T11:04:35.784Z,77.80
2023-05-08T11:06:46.850Z,75.80
2023-05-08T11:08:54.756Z,77.00
2023-05-08T11:11:06.889Z,77.90
2023-05-08T11:13:10.908Z,77.30
2023-05-08T11:15:14.330Z,77.80
2023-05-08T11:17:25.260Z,77.30
2023-05-08T11:19:29.680Z,76.70
2023-05-08T11:21:34.601Z,77.20
2023-05-08T11:23:38.095Z,75.60
2023-05-08T11:25:45.455Z,75.00
2023-05-08T11:28:15.275Z,77.00
2023-05-08T11:30:38.727Z,74.30
2023-05-08T11:33:00.602Z,75.30
2023-05-08T11:35:04.145Z,75.10
2023-05-08T11:37:12.375Z,77.70
2023-05-08T11:39:20.112Z,76.10
2023-05-08T11:41:24.657Z,75.90
2023-05-08T11:44:15.023Z,75.20
2023-05-08T11:46:21.497Z,77.40
2023-05-08T11:48:24.864Z,78.50
2023-05-08T11:50:28.409Z,79.40
2023-05-08T11:52:35.916Z,79.50
2023-05-08T11:54:39.348Z,76.00
2023-05-08T11:56:42.734Z,76.20
2023-05-08T11:58:45.958Z,76.30
2023-05-08T12:00:50.299Z,75.10
2023-05-08T12:02:53.956Z,76.20
2023-05-08T12:04:57.404Z,75.90
2023-05-08T12:07:01.026Z,75.30
2023-05-08T12:09:11.231Z,75.40
2023-05-08T12:11:24.115Z,75.40
2023-05-08T12:13:29.181Z,73.00
2023-05-08T12:15:32.616Z,74.40
2023-05-08T12:17:36.251Z,73.50
2023-05-08T12:19:39.525Z,75.30
2023-05-08T12:21:48.964Z,75.70
2023-05-08T12:23:52.390Z,72.90
2023-05-08T12:26:00.148Z,75.30
2023-05-08T12:28:03.574Z,74.80
2023-05-08T12:30:09.245Z,73.00
2023-05-08T12:32:15.695Z,74.10
2023-05-08T12:34:19.012Z,73.60
2023-05-08T12:36:22.571Z,72.70
2023-05-08T12:38:28.322Z,73.20
2023-05-08T12:40:33.487Z,70.40
2023-05-08T12:42:45.212Z,70.60
2023-05-08T12:44:52.626Z,70.10
2023-05-08T12:46:57.442Z,65.60
2023-05-08T12:49:07.298Z,63.80
2023-05-08T12:51:12.940Z,65.00
2023-05-08T12:53:18.565Z,65.30
2023-05-08T12:55:23.513Z,61.80
2023-05-08T12:57:26.910Z,68.00
2023-05-08T12:59:33.553Z,60.90
2023-05-08T13:01:37.061Z,63.50
2023-05-08T13:03:41.574Z,64.60
2023-05-08T13:05:46.724Z,62.60
2023-05-08T13:07:51.454Z,65.10
2023-05-08T13:09:59.040Z,63.10
2023-05-08T13:12:02.608Z,64.90
2023-05-08T13:14:06.059Z,64.20
2023-05-08T13:16:11.297Z,65.20
2023-05-08T13:18:17.223Z,61.90
2023-05-08T13:20:20.605Z,67.10
2023-05-08T13:22:26.914Z,63.70
2023-05-08T13:24:30.377Z,62.20
2023-05-08T13:26:33.860Z,64.20
2023-05-08T13:28:37.154Z,62.90
2023-05-08T13:30:40.668Z,59.30
2023-05-08T13:32:46.063Z,63.90
2023-05-08T13:34:51.098Z,66.30
2023-05-08T13:36:56.384Z,66.30
2023-05-08T13:38:59.765Z,65.10
2023-05-08T13:41:03.422Z,65.40
2023-05-08T13:43:06.690Z,66.40
2023-05-08T13:45:14.453Z,65.30
2023-05-08T13:47:18.120Z,65.80
2023-05-08T13:49:24.337Z,67.70
2023-05-08T13:51:27.556Z,69.30
2023-05-08T13:53:30.967Z,69.60
2023-05-08T13:55:34.505Z,68.30
2023-05-08T13:57:37.856Z,70.30
2023-05-08T13:59:41.245Z,70.90
2023-05-08T14:01:44.533Z,71.00
2023-05-08T14:03:47.944Z,73.10
2023-05-08T14:05:52.853Z,69.80
2023-05-08T14:07:56.060Z,71.90
2023-05-08T14:09:59.225Z,68.50
2023-05-08T14:12:03.361Z,70.60
2023-05-08T14:14:06.610Z,68.40
2023-05-08T14:16:12.107Z,67.50
2023-05-08T14:18:15.443Z,68.30
2023-05-08T14:20:26.769Z,67.10
2023-05-08T14:22:34.264Z,69.10
2023-05-08T14:24:37.541Z,70.00
2023-05-08T14:26:42.002Z,70.10
2023-05-08T14:28:45.838Z,70.50
2023-05-08T14:30:49.417Z,71.00
2023-05-08T14:32:53.017Z,71.40
2023-05-08T14:34:56.469Z,70.70
2023-05-08T14:37:00.172Z,72.10
2023-05-08T14:39:05.263Z,70.20
2023-05-08T14:41:08.522Z,70.00
2023-05-08T14:43:11.841Z,72.90
2023-05-08T14:45:15.475Z,73.60
2023-05-08T14:47:19.399Z,73.50
2023-05-08T14:49:35.787Z,75.20
2023-05-08T14:51:41.100Z,72.30
2023-05-08T14:53:44.623Z,71.40
2023-05-08T14:55:49.722Z,69.30
2023-05-08T14:57:53.502Z,70.70
2023-05-08T14:59:56.914Z,70.90
2023-05-08T15:02:00.268Z,74.00
2023-05-08T15:04:04.072Z,71.60
2023-05-08T15:06:08.277Z,71.50
2023-05-08T15:08:11.800Z,71.50
2023-05-08T15:10:15.168Z,70.90
2023-05-08T15:12:19.806Z,73.20
2023-05-08T15:14:24.543Z,74.40
2023-05-08T15:16:27.943Z,74.30
2023-05-08T15:18:33.210Z,72.30
2023-05-08T15:20:36.734Z,71.30
2023-05-08T15:22:40.805Z,70.70
2023-05-08T15:24:44.154Z,72.00
2023-05-08T15:26:47.671Z,71.20
2023-05-08T15:28:52.493Z,71.30
2023-05-08T15:30:55.859Z,71.00
2023-05-08T15:32:59.440Z,71.70
2023-05-08T15:35:06.240Z,70.30
2023-05-08T15:37:09.777Z,71.80
2023-05-08T15:39:13.174Z,72.10
2023-05-08T15:41:16.865Z,74.20
2023-05-08T15:43:20.347Z,73.60
2023-05-08T15:45:25.664Z,73.70
2023-05-08T15:47:28.983Z,74.80
2023-05-08T15:49:32.681Z,74.70
2023-05-08T15:51:35.949Z,74.70
2023-05-08T15:53:42.193Z,74.60
2023-05-08T15:55:45.509Z,73.80
2023-05-08T15:57:49.191Z,75.20
2023-05-08T15:59:53.205Z,76.00
2023-05-08T16:01:58.145Z,76.10
2023-05-08T16:04:01.835Z,75.90
2023-05-08T16:06:05.531Z,75.00
2023-05-08T16:08:12.542Z,74.70
2023-05-08T16:10:16.414Z,74.70
2023-05-08T16:12:19.886Z,73.20
2023-05-08T16:14:23.326Z,74.60
2023-05-08T16:16:27.085Z,74.20
2023-05-08T16:18:32.029Z,75.50
2023-05-08T16:20:36.382Z,75.60
2023-05-08T16:22:39.796Z,74.80
2023-05-08T16:24:43.339Z,73.40
2023-05-08T16:26:46.873Z,73.20
2023-05-08T16:28:50.380Z,74.90
2023-05-08T16:30:54.207Z,74.70
2023-05-08T16:32:57.582Z,76.00
2023-05-08T16:35:02.706Z,76.20
2023-05-08T16:37:07.356Z,76.20
2023-05-08T16:39:12.080Z,75.60
2023-05-08T16:41:15.590Z,75.30
2023-05-08T16:43:19.087Z,74.80
2023-05-08T16:45:22.509Z,75.40
2023-05-08T16:47:26.028Z,74.90
2023-05-08T16:49:29.459Z,76.50
2023-05-08T16:51:34.351Z,75.80
2023-05-08T16:53:37.647Z,75.20
2023-05-08T16:55:41.281Z,75.30
2023-05-08T16:57:45.124Z,77.60
2023-05-08T16:59:48.743Z,76.80
2023-05-08T17:01:52.114Z,77.00
2023-05-08T17:03:55.265Z,76.20
2023-05-08T17:05:58.543Z,77.00
2023-05-08T17:08:03.376Z,77.00
2023-05-08T17:10:09.171Z,76.70
2023-05-08T17:12:12.524Z,76.30
2023-05-08T17:14:15.772Z,75.80
2023-05-08T17:16:20.525Z,76.60
2023-05-08T17:18:24.130Z,76.90
2023-05-08T17:20:27.466Z,76.90
2023-05-08T17:22:30.933Z,78.70
2023-05-08T17:24:37.371Z,81.40
2023-05-08T17:26:40.871Z,82.50
2023-05-08T17:28:44.135Z,82.30
2023-05-08T17:30:48.204Z,81.00
2023-05-08T17:32:51.758Z,80.00
2023-05-08T17:34:55.137Z,81.20
2023-05-08T17:36:58.365Z,82.00
2023-05-08T17:39:01.609Z,83.40
2023-05-08T17:41:06.346Z,84.30
2023-05-08T17:43:09.683Z,83.80
2023-05-08T17:45:13.510Z,82.80
2023-05-08T17:47:16.773Z,83.10
2023-05-08T17:49:19.990Z,83.60
2023-05-08T17:51:23.556Z,84.60
2023-05-08T17:53:26.931Z,84.10
2023-05-08T17:55:31.733Z,84.30
2023-05-08T17:57:36.763Z,83.90
2023-05-08T17:59:40.104Z,85.10
2023-05-08T18:01:57.234Z,84.70
2023-05-08T18:04:00.705Z,84.00
2023-05-08T18:06:04.112Z,83.40
2023-05-08T18:08:07.288Z,83.00
2023-05-08T18:10:11.432Z,83.40
2023-05-08T18:12:15.224Z,83.90
2023-05-08T18:14:20.199Z,85.30
2023-05-08T18:16:24.441Z,86.10
2023-05-08T18:18:27.825Z,87.20
2023-05-08T18:20:31.301Z,86.00
2023-05-08T18:22:34.810Z,86.40
2023-05-08T18:24:41.215Z,86.40
2023-05-08T18:26:44.662Z,85.50
2023-05-08T18:28:47.939Z,85.80
2023-05-08T18:30:52.787Z,86.00
2023-05-08T18:32:56.061Z,86.10
2023-05-08T18:34:59.391Z,85.90
2023-05-08T18:37:02.751Z,85.40
2023-05-08T18:39:06.089Z,86.00
2023-05-08T18:41:09.453Z,86.30
2023-05-08T18:43:12.896Z,86.90
2023-05-08T18:45:16.750Z,86.30
2023-05-08T18:47:21.551Z,85.90
2023-05-08T18:49:25.489Z,85.90
2023-05-08T18:51:28.917Z,85.80
2023-05-08T18:53:33.068Z,86.50
2023-05-08T18:55:36.879Z,86.40
2023-05-08T18:57:40.121Z,86.10
2023-05-08T18:59:44.022Z,86.90
2023-05-08T19:01:47.478Z,85.90
2023-05-08T19:03:52.501Z,85.70
2023-05-08T19:05:56.296Z,85.90
2023-05-08T19:07:59.496Z,86.10
2023-05-08T19:10:02.815Z,86.60
2023-05-08T19:12:06.062Z,87.10
2023-05-08T19:14:09.511Z,86.80
2023-05-08T19:16:12.867Z,86.50
2023-05-08T19:18:16.089Z,86.40
2023-05-08T19:20:21.258Z,87.10
2023-05-08T19:22:24.554Z,86.60
2023-05-08T19:24:29.950Z,86.40
2023-05-08T19:26:33.550Z,86.20
2023-05-08T19:28:36.714Z,86.40
2023-05-08T19:30:40.231Z,87.30
2023-05-08T19:32:43.913Z,88.20
2023-05-08T19:34:47.279Z,88.50
2023-05-08T19:36:52.050Z,89.00
2023-05-08T19:38:55.394Z,88.70
2023-05-08T19:40:58.665Z,87.70
2023-05-08T19:43:03.213Z,87.30
2023-05-08T19:45:07.546Z,87.70
2023-05-08T19:47:10.788Z,88.50
2023-05-08T19:49:16.160Z,88.90
2023-05-08T19:51:20.559Z,88.60
2023-05-08T19:53:25.489Z,88.00
2023-05-08T19:55:28.859Z,88.70
2023-05-08T19:57:32.257Z,89.90
2023-05-08T19:59:35.489Z,89.50
2023-05-08T20:01:38.903Z,88.80
2023-05-08T20:03:42.575Z,88.30
2023-05-08T20:05:45.971Z,88.00
2023-05-08T20:07:49.213Z,88.30
2023-05-08T20:09:54.193Z,88.60
2023-05-08T20:11:57.434Z,88.70
2023-05-08T20:14:00.632Z,88.40
2023-05-08T20:16:04.015Z,88.10
2023-05-08T20:18:07.409Z,87.80
2023-05-08T20:20:12.487Z,87.70
2023-05-08T20:22:16.194Z,87.60
2023-05-08T20:24:19.417Z,87.80
2023-05-08T20:26:24.607Z,87.70
2023-05-08T20:28:27.889Z,87.50
2023-05-08T20:30:31.450Z,88.20
2023-05-08T20:32:34.993Z,88.50
2023-05-08T20:34:38.162Z,88.40
2023-05-08T20:36:41.448Z,87.90
2023-05-08T20:38:44.738Z,88.20
2023-05-08T20:40:48.328Z,89.20
2023-05-08T20:42:52.988Z,89.20
2023-05-08T20:44:56.272Z,89.10
2023-05-08T20:46:59.472Z,88.60
2023-05-08T20:49:04.020Z,88.50
2023-05-08T20:51:07.523Z,88.10
2023-05-08T20:53:10.801Z,87.80
2023-05-08T20:55:14.439Z,87.60
2023-05-08T20:57:18.428Z,87.50
2023-05-08T20:59:23.334Z,87.90
2023-05-08T21:01:27.178Z,87.40
2023-05-08T21:03:30.530Z,87.60
2023-05-08T21:05:33.922Z,88.40
2023-05-08T21:07:37.235Z,88.30
2023-05-08T21:09:40.478Z,88.50
2023-05-08T21:11:43.923Z,88.30
2023-05-08T21:13:47.297Z,88.40
2023-05-08T21:15:52.637Z,88.20
2023-05-08T21:17:57.078Z,88.30
2023-05-08T21:20:00.452Z,88.90
2023-05-08T21:22:04.028Z,88.70
2023-05-08T21:24:07.677Z,88.40
2023-05-08T21:26:11.031Z,88.00
2023-05-08T21:28:15.124Z,88.10
2023-05-08T21:30:18.662Z,87.90
2023-05-08T21:32:23.551Z,87.70
2023-05-08T21:34:26.838Z,87.70
2023-05-08T21:36:30.387Z,87.70
2023-05-08T21:38:33.642Z,88.10
2023-05-08T21:40:37.341Z,88.20
2023-05-08T21:42:41.057Z,88.30
2023-05-08T21:44:44.744Z,88.20
2023-05-08T21:46:48.482Z,88.40
2023-05-08T21:48:53.731Z,87.90
2023-05-08T21:50:57.155Z,88.00
2023-05-08T21:53:00.752Z,88.00
2023-05-08T21:55:08.622Z,88.70
2023-05-08T21:57:12.074Z,89.20
2023-05-08T21:59:15.745Z,89.20
2023-05-08T22:01:19.311Z,89.30
2023-05-08T22:03:22.881Z,89.10
2023-05-08T22:05:27.484Z,88.80
2023-05-08T22:07:30.748Z,88.70
2023-05-08T22:09:34.193Z,88.90
2023-05-08T22:11:37.429Z,89.20
2023-05-08T22:13:40.771Z,89.50
2023-05-08T22:15:44.738Z,89.80
2023-05-08T22:17:49.819Z,89.70
2023-05-08T22:19:53.164Z,89.40
2023-05-08T22:24:01.489Z,89.50
2023-05-08T22:26:05.031Z,89.90
2023-05-08T22:28:08.243Z,89.40
2023-05-08T22:30:11.905Z,88.60
2023-05-08T22:32:15.399Z,88.00
2023-05-08T22:34:18.836Z,88.30
2023-05-08T22:36:23.925Z,88.70
2023-05-08T22:38:28.584Z,88.70
2023-05-08T22:40:31.977Z,88.40
2023-05-08T22:42:35.179Z,88.60
2023-05-08T22:44:38.700Z,88.70
2023-05-08T22:46:42.244Z,89.50
2023-05-08T22:48:46.275Z,90.00
2023-05-08T22:50:50.510Z,89.90
2023-05-08T22:52:53.867Z,89.40
2023-05-08T22:55:00.763Z,97.30
2023-05-08T22:57:04.668Z,90.30
2023-05-08T23:01:11.990Z,89.00
2023-05-08T23:03:16.582Z,89.60
2023-05-08T23:05:20.100Z,89.70
2023-05-08T23:07:23.382Z,89.80
2023-05-08T23:09:26.637Z,89.70
2023-05-08T23:11:31.721Z,89.70
2023-05-08T23:13:35.266Z,89.20
2023-05-08T23:15:38.894Z,89.00
2023-05-08T23:17:42.313Z,88.90
2023-05-08T23:19:46.097Z,89.10
2023-05-08T23:21:49.485Z,89.30
2023-05-08T23:23:54.286Z,89.40
2023-05-08T23:26:01.082Z,89.80
2023-05-08T23:28:05.825Z,89.70
2023-05-08T23:30:13.178Z,89.50
2023-05-08T23:32:16.712Z,89.30
2023-05-08T23:34:20.184Z,89.70
2023-05-08T23:36:23.627Z,89.60
2023-05-08T23:38:26.929Z,89.70
2023-05-08T23:40:30.420Z,90.10
2023-05-08T23:42:33.661Z,90.20
2023-05-08T23:44:38.334Z,90.10
2023-05-08T23:46:41.960Z,90.00
2023-05-08T23:48:45.287Z,90.00
2023-05-08T23:50:48.508Z,90.10
2023-05-08T23:52:52.035Z,90.40
2023-05-08T23:54:55.519Z,90.50
2023-05-08T23:56:58.713Z,90.80
2023-05-08T23:59:02.107Z,90.50
